« Back
NWS Peachtree City, Ga » Text Product » CSG Terminal Aerodrome Forecast


Printer-friendly Version
Current Version              Previous Versions:   1  2  3  4  5  6  7  8  9  

Terminal Aerodrome Forecast

541
FTUS42 KFFC 241125
TAFCSG
TAF
KCSG 241125Z 2412/2512 10004KT P6SM VCSH SCT015 SCT030
      TEMPO 2412/2414 BKN030
     FM241400 13006KT P6SM VCSH SCT025 BKN050
     FM241600 13007KT P6SM VCSH SCT030 BKN060
     FM242100 10006KT P6SM SCT050 SCT100
     FM250100 10004KT P6SM FEW060 SCT150=

USA.gov is the U.S. government's official web portal to all federal, state and local government web resources and services.